sensor_id;sensor_type;location;lat;lon;timestamp;pressure;altitude;pressure_sealevel;temperature;humidity
46127;BME280;31859;55.030;-1.550;2022-10-04T00:01:52;100387.59;;;11.56;100.00
46127;BME280;31859;55.030;-1.550;2022-10-04T00:04:24;100386.49;;;11.18;100.00
46127;BME280;31859;55.030;-1.550;2022-10-04T00:06:58;100369.65;;;11.64;100.00
46127;BME280;31859;55.030;-1.550;2022-10-04T00:09:31;100363.29;;;11.41;100.00
46127;BME280;31859;55.030;-1.550;2022-10-04T00:12:01;100364.97;;;11.20;100.00
46127;BME280;31859;55.030;-1.550;2022-10-04T00:14:31;100361.35;;;11.07;100.00
46127;BME280;31859;55.030;-1.550;2022-10-04T00:17:08;100361.49;;;11.32;100.00
46127;BME280;31859;55.030;-1.550;2022-10-04T00:19:40;100354.16;;;11.08;100.00
46127;BME280;31859;55.030;-1.550;2022-10-04T00:22:24;100352.51;;;11.22;100.00
46127;BME280;31859;55.030;-1.550;2022-10-04T00:25:34;100345.92;;;11.04;100.00
46127;BME280;31859;55.030;-1.550;2022-10-04T00:28:15;100353.84;;;10.61;100.00
46127;BME280;31859;55.030;-1.550;2022-10-04T00:31:26;100352.05;;;10.69;100.00
46127;BME280;31859;55.030;-1.550;2022-10-04T00:34:32;100351.05;;;10.60;100.00
46127;BME280;31859;55.030;-1.550;2022-10-04T00:37:13;100343.68;;;11.04;100.00
46127;BME280;31859;55.030;-1.550;2022-10-04T00:39:42;100339.56;;;11.36;100.00
46127;BME280;31859;55.030;-1.550;2022-10-04T00:42:22;100335.16;;;11.38;100.00
46127;BME280;31859;55.030;-1.550;2022-10-04T00:44:55;100327.73;;;11.39;100.00
46127;BME280;31859;55.030;-1.550;2022-10-04T00:47:29;100321.12;;;11.37;100.00
46127;BME280;31859;55.030;-1.550;2022-10-04T00:50:06;100321.17;;;11.28;100.00
46127;BME280;31859;55.030;-1.550;2022-10-04T00:52:41;100304.22;;;11.19;100.00
46127;BME280;31859;55.030;-1.550;2022-10-04T00:55:21;100300.53;;;10.95;100.00
46127;BME280;31859;55.030;-1.550;2022-10-04T00:57:53;100295.77;;;10.68;100.00
46127;BME280;31859;55.030;-1.550;2022-10-04T01:00:23;100284.86;;;10.72;100.00
46127;BME280;31859;55.030;-1.550;2022-10-04T01:02:54;100279.78;;;10.63;100.00
46127;BME280;31859;55.030;-1.550;2022-10-04T01:05:30;100288.50;;;10.75;100.00
46127;BME280;31859;55.030;-1.550;2022-10-04T01:08:05;100286.19;;;10.51;100.00
46127;BME280;31859;55.030;-1.550;2022-10-04T01:10:39;100274.27;;;10.59;100.00
46127;BME280;31859;55.030;-1.550;2022-10-04T01:13:12;100267.57;;;10.77;100.00
46127;BME280;31859;55.030;-1.550;2022-10-04T01:15:43;100264.01;;;10.43;100.00
46127;BME280;31859;55.030;-1.550;2022-10-04T01:18:28;100259.89;;;10.91;100.00
46127;BME280;31859;55.030;-1.550;2022-10-04T01:20:59;100253.17;;;11.09;100.00
46127;BME280;31859;55.030;-1.550;2022-10-04T01:23:34;100249.67;;;11.17;100.00
46127;BME280;31859;55.030;-1.550;2022-10-04T01:26:03;100246.61;;;10.78;100.00
46127;BME280;31859;55.030;-1.550;2022-10-04T01:28:31;100246.52;;;10.95;100.00
46127;BME280;31859;55.030;-1.550;2022-10-04T01:30:59;100239.36;;;11.06;100.00
46127;BME280;31859;55.030;-1.550;2022-10-04T01:33:27;100241.64;;;11.17;100.00
46127;BME280;31859;55.030;-1.550;2022-10-04T01:35:54;100224.83;;;10.92;100.00
46127;BME280;31859;55.030;-1.550;2022-10-04T01:38:21;100226.88;;;11.13;100.00
46127;BME280;31859;55.030;-1.550;2022-10-04T01:40:52;100210.88;;;11.12;100.00
46127;BME280;31859;55.030;-1.550;2022-10-04T01:43:25;100205.35;;;11.29;100.00
46127;BME280;31859;55.030;-1.550;2022-10-04T01:45:58;100195.64;;;10.94;100.00
46127;BME280;31859;55.030;-1.550;2022-10-04T01:48:32;100191.14;;;11.27;100.00
46127;BME280;31859;55.030;-1.550;2022-10-04T01:51:03;100183.45;;;11.67;100.00
46127;BME280;31859;55.030;-1.550;2022-10-04T01:53:36;100184.36;;;11.42;100.00
46127;BME280;31859;55.030;-1.550;2022-10-04T01:56:11;100177.97;;;11.32;100.00
46127;BME280;31859;55.030;-1.550;2022-10-04T01:58:43;100179.95;;;11.41;100.00
46127;BME280;31859;55.030;-1.550;2022-10-04T02:01:15;100184.00;;;11.24;100.00
46127;BME280;31859;55.030;-1.550;2022-10-04T02:03:50;100187.87;;;11.05;100.00
46127;BME280;31859;55.030;-1.550;2022-10-04T02:06:19;100178.27;;;11.17;100.00
46127;BME280;31859;55.030;-1.550;2022-10-04T02:08:49;100168.71;;;11.18;100.00
46127;BME280;31859;55.030;-1.550;2022-10-04T02:11:19;100164.82;;;11.01;100.00
46127;BME280;31859;55.030;-1.550;2022-10-04T02:13:49;100164.33;;;10.99;100.00
46127;BME280;31859;55.030;-1.550;2022-10-04T02:16:17;100167.78;;;10.91;100.00
46127;BME280;31859;55.030;-1.550;2022-10-04T02:18:49;100171.46;;;10.85;100.00
46127;BME280;31859;55.030;-1.550;2022-10-04T02:21:18;100183.04;;;10.85;100.00
46127;BME280;31859;55.030;-1.550;2022-10-04T02:23:46;100164.28;;;10.90;100.00
46127;BME280;31859;55.030;-1.550;2022-10-04T02:26:14;100154.09;;;11.25;100.00
46127;BME280;31859;55.030;-1.550;2022-10-04T02:28:42;100148.61;;;11.15;100.00
46127;BME280;31859;55.030;-1.550;2022-10-04T02:31:10;100148.30;;;11.32;100.00
46127;BME280;31859;55.030;-1.550;2022-10-04T02:33:39;100136.29;;;11.10;100.00
46127;BME280;31859;55.030;-1.550;2022-10-04T02:36:08;100134.96;;;11.31;100.00
46127;BME280;31859;55.030;-1.550;2022-10-04T02:38:39;100122.68;;;10.64;100.00
46127;BME280;31859;55.030;-1.550;2022-10-04T02:41:15;100110.91;;;10.99;100.00
46127;BME280;31859;55.030;-1.550;2022-10-04T02:43:51;100099.61;;;11.26;100.00
46127;BME280;31859;55.030;-1.550;2022-10-04T02:46:24;100082.02;;;11.13;100.00
46127;BME280;31859;55.030;-1.550;2022-10-04T02:48:56;100067.51;;;10.90;100.00
46127;BME280;31859;55.030;-1.550;2022-10-04T02:51:26;100064.02;;;10.94;100.00
46127;BME280;31859;55.030;-1.550;2022-10-04T02:54:02;100057.42;;;11.49;100.00
46127;BME280;31859;55.030;-1.550;2022-10-04T02:56:31;100076.74;;;11.59;100.00
46127;BME280;31859;55.030;-1.550;2022-10-04T02:59:01;100076.67;;;11.97;100.00
46127;BME280;31859;55.030;-1.550;2022-10-04T03:01:40;100065.13;;;12.57;100.00
46127;BME280;31859;55.030;-1.550;2022-10-04T03:04:10;100061.31;;;12.73;100.00
46127;BME280;31859;55.030;-1.550;2022-10-04T03:06:38;100077.50;;;11.66;100.00
46127;BME280;31859;55.030;-1.550;2022-10-04T03:09:06;100068.68;;;11.09;100.00
46127;BME280;31859;55.030;-1.550;2022-10-04T03:11:35;100074.17;;;11.01;100.00
46127;BME280;31859;55.030;-1.550;2022-10-04T03:14:06;100076.10;;;10.99;100.00
46127;BME280;31859;55.030;-1.550;2022-10-04T03:16:36;100063.22;;;10.73;100.00
46127;BME280;31859;55.030;-1.550;2022-10-04T03:19:05;100063.02;;;10.81;100.00
46127;BME280;31859;55.030;-1.550;2022-10-04T03:21:36;100075.98;;;10.24;100.00
46127;BME280;31859;55.030;-1.550;2022-10-04T03:24:05;100077.12;;;10.68;100.00
46127;BME280;31859;55.030;-1.550;2022-10-04T03:26:37;100073.99;;;10.08;100.00
46127;BME280;31859;55.030;-1.550;2022-10-04T03:29:06;100056.19;;;10.28;100.00
46127;BME280;31859;55.030;-1.550;2022-10-04T03:31:36;100061.56;;;10.32;100.00
46127;BME280;31859;55.030;-1.550;2022-10-04T03:34:04;100069.68;;;10.38;100.00
46127;BME280;31859;55.030;-1.550;2022-10-04T03:36:33;100078.02;;;10.61;100.00
46127;BME280;31859;55.030;-1.550;2022-10-04T03:39:06;100079.64;;;10.73;100.00
46127;BME280;31859;55.030;-1.550;2022-10-04T03:41:37;100074.87;;;11.34;100.00
46127;BME280;31859;55.030;-1.550;2022-10-04T03:44:07;100064.98;;;11.09;100.00
46127;BME280;31859;55.030;-1.550;2022-10-04T03:46:42;100052.06;;;11.34;100.00
46127;BME280;31859;55.030;-1.550;2022-10-04T03:49:11;100046.67;;;11.29;100.00
46127;BME280;31859;55.030;-1.550;2022-10-04T03:51:44;100043.28;;;11.99;100.00
46127;BME280;31859;55.030;-1.550;2022-10-04T03:54:17;100032.85;;;11.96;100.00
46127;BME280;31859;55.030;-1.550;2022-10-04T03:56:47;100028.38;;;12.18;100.00
46127;BME280;31859;55.030;-1.550;2022-10-04T03:59:16;100029.92;;;11.53;100.00
46127;BME280;31859;55.030;-1.550;2022-10-04T04:01:47;100025.20;;;11.17;100.00
46127;BME280;31859;55.030;-1.550;2022-10-04T04:04:19;100029.38;;;10.89;100.00
46127;BME280;31859;55.030;-1.550;2022-10-04T04:06:57;100026.52;;;10.92;100.00
46127;BME280;31859;55.030;-1.550;2022-10-04T04:09:36;100026.64;;;10.90;100.00
46127;BME280;31859;55.030;-1.550;2022-10-04T04:12:09;100022.09;;;11.44;100.00
46127;BME280;31859;55.030;-1.550;2022-10-04T04:14:47;100016.06;;;11.77;100.00
46127;BME280;31859;55.030;-1.550;2022-10-04T04:17:35;100005.58;;;11.70;100.00
46127;BME280;31859;55.030;-1.550;2022-10-04T04:20:11;100000.93;;;11.79;100.00
46127;BME280;31859;55.030;-1.550;2022-10-04T04:22:42;99993.50;;;12.51;100.00
46127;BME280;31859;55.030;-1.550;2022-10-04T04:25:13;99996.38;;;12.13;100.00
46127;BME280;31859;55.030;-1.550;2022-10-04T04:27:45;99994.88;;;12.36;100.00
46127;BME280;31859;55.030;-1.550;2022-10-04T04:30:16;99985.16;;;12.19;100.00
46127;BME280;31859;55.030;-1.550;2022-10-04T04:32:46;99991.27;;;12.22;100.00
46127;BME280;31859;55.030;-1.550;2022-10-04T04:35:22;99987.71;;;12.10;100.00
46127;BME280;31859;55.030;-1.550;2022-10-04T04:38:16;99993.89;;;11.99;100.00
46127;BME280;31859;55.030;-1.550;2022-10-04T04:40:45;99969.12;;;12.74;100.00
46127;BME280;31859;55.030;-1.550;2022-10-04T04:43:17;99960.18;;;13.06;100.00
46127;BME280;31859;55.030;-1.550;2022-10-04T04:45:46;99967.42;;;12.52;100.00
46127;BME280;31859;55.030;-1.550;2022-10-04T04:48:15;99968.96;;;12.75;100.00
46127;BME280;31859;55.030;-1.550;2022-10-04T04:50:48;99974.03;;;12.70;100.00
46127;BME280;31859;55.030;-1.550;2022-10-04T04:53:21;99973.40;;;12.66;100.00
46127;BME280;31859;55.030;-1.550;2022-10-04T04:55:50;99973.53;;;12.59;100.00
46127;BME280;31859;55.030;-1.550;2022-10-04T04:58:24;99966.68;;;12.19;100.00
46127;BME280;31859;55.030;-1.550;2022-10-04T05:00:55;99975.48;;;11.69;100.00
46127;BME280;31859;55.030;-1.550;2022-10-04T05:03:24;99970.46;;;12.37;100.00
46127;BME280;31859;55.030;-1.550;2022-10-04T05:05:52;99986.33;;;11.73;100.00
46127;BME280;31859;55.030;-1.550;2022-10-04T05:08:21;99979.83;;;12.28;100.00
46127;BME280;31859;55.030;-1.550;2022-10-04T05:10:53;99982.91;;;12.36;100.00
46127;BME280;31859;55.030;-1.550;2022-10-04T05:13:31;99975.67;;;12.72;100.00
46127;BME280;31859;55.030;-1.550;2022-10-04T05:16:00;99981.15;;;12.32;100.00
46127;BME280;31859;55.030;-1.550;2022-10-04T05:18:30;99977.58;;;12.26;100.00
46127;BME280;31859;55.030;-1.550;2022-10-04T05:21:03;99978.48;;;12.72;100.00
46127;BME280;31859;55.030;-1.550;2022-10-04T05:23:32;99973.16;;;12.56;100.00
46127;BME280;31859;55.030;-1.550;2022-10-04T05:26:00;99974.75;;;12.17;100.00
46127;BME280;31859;55.030;-1.550;2022-10-04T05:28:28;99960.33;;;12.95;100.00
46127;BME280;31859;55.030;-1.550;2022-10-04T05:31:06;99955.82;;;12.54;100.00
46127;BME280;31859;55.030;-1.550;2022-10-04T05:33:44;99944.15;;;12.85;100.00
46127;BME280;31859;55.030;-1.550;2022-10-04T05:36:39;99942.80;;;12.43;100.00
46127;BME280;31859;55.030;-1.550;2022-10-04T05:39:19;99959.62;;;12.21;100.00
46127;BME280;31859;55.030;-1.550;2022-10-04T05:41:56;99947.45;;;12.54;100.00
46127;BME280;31859;55.030;-1.550;2022-10-04T05:44:27;99952.50;;;12.08;100.00
46127;BME280;31859;55.030;-1.550;2022-10-04T05:46:56;99951.77;;;12.17;100.00
46127;BME280;31859;55.030;-1.550;2022-10-04T05:49:29;99945.84;;;12.76;100.00
46127;BME280;31859;55.030;-1.550;2022-10-04T05:52:00;99944.48;;;12.45;100.00
46127;BME280;31859;55.030;-1.550;2022-10-04T05:54:30;99943.57;;;13.01;100.00
46127;BME280;31859;55.030;-1.550;2022-10-04T05:57:11;99942.79;;;12.92;100.00
46127;BME280;31859;55.030;-1.550;2022-10-04T05:59:58;99941.40;;;12.81;100.00
46127;BME280;31859;55.030;-1.550;2022-10-04T06:02:38;99934.29;;;12.80;100.00
46127;BME280;31859;55.030;-1.550;2022-10-04T06:05:11;99923.85;;;13.17;100.00
46127;BME280;31859;55.030;-1.550;2022-10-04T06:07:43;99931.62;;;12.41;100.00
46127;BME280;31859;55.030;-1.550;2022-10-04T06:11:29;99932.65;;;12.55;100.00
46127;BME280;31859;55.030;-1.550;2022-10-04T06:14:18;99929.35;;;12.93;100.00
46127;BME280;31859;55.030;-1.550;2022-10-04T06:17:04;99917.27;;;13.18;100.00
46127;BME280;31859;55.030;-1.550;2022-10-04T06:19:57;99902.83;;;13.90;100.00
46127;BME280;31859;55.030;-1.550;2022-10-04T06:22:28;99893.34;;;13.85;100.00
46127;BME280;31859;55.030;-1.550;2022-10-04T06:25:01;99894.53;;;14.18;100.00
46127;BME280;31859;55.030;-1.550;2022-10-04T06:27:35;99887.52;;;14.64;100.00
46127;BME280;31859;55.030;-1.550;2022-10-04T06:30:05;99883.83;;;14.78;100.00
46127;BME280;31859;55.030;-1.550;2022-10-04T06:32:51;99879.88;;;15.41;100.00
46127;BME280;31859;55.030;-1.550;2022-10-04T06:35:37;99884.02;;;14.28;100.00
46127;BME280;31859;55.030;-1.550;2022-10-04T06:38:29;99873.52;;;14.04;100.00
46127;BME280;31859;55.030;-1.550;2022-10-04T06:41:11;99870.78;;;13.98;100.00
46127;BME280;31859;55.030;-1.550;2022-10-04T06:43:53;99875.45;;;14.67;100.00
46127;BME280;31859;55.030;-1.550;2022-10-04T06:46:32;99878.32;;;14.45;100.00
46127;BME280;31859;55.030;-1.550;2022-10-04T06:49:12;99880.11;;;14.89;100.00
46127;BME280;31859;55.030;-1.550;2022-10-04T06:51:55;99876.26;;;14.92;100.00
46127;BME280;31859;55.030;-1.550;2022-10-04T06:54:37;99874.16;;;14.44;100.00
46127;BME280;31859;55.030;-1.550;2022-10-04T06:57:28;99875.33;;;13.83;100.00
46127;BME280;31859;55.030;-1.550;2022-10-04T07:00:07;99876.93;;;13.89;100.00
46127;BME280;31859;55.030;-1.550;2022-10-04T07:02:41;99873.94;;;13.33;100.00
46127;BME280;31859;55.030;-1.550;2022-10-04T07:05:19;99870.32;;;13.21;100.00
46127;BME280;31859;55.030;-1.550;2022-10-04T07:07:53;99865.33;;;13.44;100.00
46127;BME280;31859;55.030;-1.550;2022-10-04T07:10:29;99863.27;;;13.01;100.00
46127;BME280;31859;55.030;-1.550;2022-10-04T07:13:21;99874.17;;;13.10;100.00
46127;BME280;31859;55.030;-1.550;2022-10-04T07:15:58;99858.26;;;13.16;100.00
46127;BME280;31859;55.030;-1.550;2022-10-04T07:18:30;99849.34;;;13.43;100.00
46127;BME280;31859;55.030;-1.550;2022-10-04T07:21:03;99852.54;;;13.51;100.00
46127;BME280;31859;55.030;-1.550;2022-10-04T07:23:37;99846.43;;;12.83;100.00
46127;BME280;31859;55.030;-1.550;2022-10-04T07:26:12;99852.81;;;12.63;100.00
46127;BME280;31859;55.030;-1.550;2022-10-04T07:28:43;99857.05;;;12.59;100.00
46127;BME280;31859;55.030;-1.550;2022-10-04T07:31:19;99864.37;;;12.69;100.00
46127;BME280;31859;55.030;-1.550;2022-10-04T07:33:50;99859.71;;;13.00;100.00
46127;BME280;31859;55.030;-1.550;2022-10-04T07:36:23;99858.46;;;12.21;100.00
46127;BME280;31859;55.030;-1.550;2022-10-04T07:38:55;99854.43;;;12.76;100.00
46127;BME280;31859;55.030;-1.550;2022-10-04T07:41:27;99850.34;;;12.65;100.00
46127;BME280;31859;55.030;-1.550;2022-10-04T07:43:58;99867.52;;;12.97;100.00
46127;BME280;31859;55.030;-1.550;2022-10-04T07:46:43;99859.47;;;12.44;100.00
46127;BME280;31859;55.030;-1.550;2022-10-04T07:49:15;99850.19;;;12.92;100.00
46127;BME280;31859;55.030;-1.550;2022-10-04T07:52:01;99840.74;;;13.15;100.00
46127;BME280;31859;55.030;-1.550;2022-10-04T07:54:36;99833.82;;;13.24;100.00
46127;BME280;31859;55.030;-1.550;2022-10-04T07:57:13;99829.68;;;13.13;100.00
46127;BME280;31859;55.030;-1.550;2022-10-04T07:59:52;99824.21;;;13.27;100.00
46127;BME280;31859;55.030;-1.550;2022-10-04T08:02:30;99830.01;;;13.39;100.00
46127;BME280;31859;55.030;-1.550;2022-10-04T08:05:14;99829.51;;;13.20;100.00
46127;BME280;31859;55.030;-1.550;2022-10-04T08:07:59;99820.34;;;12.85;100.00
46127;BME280;31859;55.030;-1.550;2022-10-04T08:10:35;99821.77;;;12.95;100.00
46127;BME280;31859;55.030;-1.550;2022-10-04T08:13:15;99809.58;;;12.84;100.00
46127;BME280;31859;55.030;-1.550;2022-10-04T08:15:47;99806.39;;;13.11;100.00
46127;BME280;31859;55.030;-1.550;2022-10-04T08:18:24;99801.81;;;12.71;100.00
46127;BME280;31859;55.030;-1.550;2022-10-04T08:20:58;99809.76;;;13.11;100.00
46127;BME280;31859;55.030;-1.550;2022-10-04T08:23:39;99809.10;;;13.23;100.00
46127;BME280;31859;55.030;-1.550;2022-10-04T08:26:21;99801.90;;;12.85;100.00
46127;BME280;31859;55.030;-1.550;2022-10-04T08:28:58;99812.27;;;12.69;100.00
46127;BME280;31859;55.030;-1.550;2022-10-04T08:31:38;99812.93;;;12.89;100.00
46127;BME280;31859;55.030;-1.550;2022-10-04T08:34:19;99818.01;;;12.67;100.00
46127;BME280;31859;55.030;-1.550;2022-10-04T08:36:55;99809.14;;;12.54;100.00
46127;BME280;31859;55.030;-1.550;2022-10-04T08:39:36;99803.14;;;12.70;100.00
46127;BME280;31859;55.030;-1.550;2022-10-04T08:42:34;99801.47;;;12.61;100.00
46127;BME280;31859;55.030;-1.550;2022-10-04T08:48:18;99786.30;;;13.30;100.00
46127;BME280;31859;55.030;-1.550;2022-10-04T08:51:03;99781.88;;;12.54;100.00
46127;BME280;31859;55.030;-1.550;2022-10-04T08:56:00;99782.54;;;13.49;100.00
46127;BME280;31859;55.030;-1.550;2022-10-04T08:59:53;99781.37;;;12.78;100.00
46127;BME280;31859;55.030;-1.550;2022-10-04T09:02:46;99762.00;;;13.02;100.00
46127;BME280;31859;55.030;-1.550;2022-10-04T09:07:55;99784.91;;;13.67;100.00
46127;BME280;31859;55.030;-1.550;2022-10-04T09:10:34;99797.85;;;13.35;100.00
46127;BME280;31859;55.030;-1.550;2022-10-04T09:13:15;99800.73;;;13.41;100.00
46127;BME280;31859;55.030;-1.550;2022-10-04T09:15:50;99804.73;;;13.58;100.00
46127;BME280;31859;55.030;-1.550;2022-10-04T09:18:35;99805.11;;;13.71;100.00
46127;BME280;31859;55.030;-1.550;2022-10-04T09:21:18;99799.56;;;13.40;100.00
46127;BME280;31859;55.030;-1.550;2022-10-04T09:24:09;99794.60;;;13.37;100.00
46127;BME280;31859;55.030;-1.550;2022-10-04T09:26:51;99780.20;;;12.95;100.00
46127;BME280;31859;55.030;-1.550;2022-10-04T09:29:40;99776.17;;;13.26;100.00
46127;BME280;31859;55.030;-1.550;2022-10-04T09:32:26;99784.80;;;13.39;100.00
46127;BME280;31859;55.030;-1.550;2022-10-04T09:35:19;99796.80;;;13.68;100.00
46127;BME280;31859;55.030;-1.550;2022-10-04T09:38:05;99784.18;;;13.49;100.00
46127;BME280;31859;55.030;-1.550;2022-10-04T09:40:49;99774.75;;;13.19;100.00
46127;BME280;31859;55.030;-1.550;2022-10-04T09:43:41;99766.24;;;13.72;100.00
46127;BME280;31859;55.030;-1.550;2022-10-04T09:46:20;99764.28;;;14.04;100.00
46127;BME280;31859;55.030;-1.550;2022-10-04T09:49:01;99766.96;;;14.07;100.00
46127;BME280;31859;55.030;-1.550;2022-10-04T09:51:52;99755.09;;;13.74;100.00
46127;BME280;31859;55.030;-1.550;2022-10-04T09:54:44;99767.79;;;14.01;100.00
46127;BME280;31859;55.030;-1.550;2022-10-04T09:57:21;99762.70;;;14.33;100.00
46127;BME280;31859;55.030;-1.550;2022-10-04T10:00:06;99763.19;;;13.78;100.00
46127;BME280;31859;55.030;-1.550;2022-10-04T10:02:57;99757.56;;;13.58;100.00
46127;BME280;31859;55.030;-1.550;2022-10-04T10:05:47;99762.14;;;13.99;100.00
46127;BME280;31859;55.030;-1.550;2022-10-04T10:08:22;99767.65;;;13.46;100.00
46127;BME280;31859;55.030;-1.550;2022-10-04T10:10:57;99771.82;;;13.67;100.00
46127;BME280;31859;55.030;-1.550;2022-10-04T10:13:39;99774.80;;;13.60;100.00
46127;BME280;31859;55.030;-1.550;2022-10-04T10:16:32;99765.20;;;13.53;100.00
46127;BME280;31859;55.030;-1.550;2022-10-04T10:19:15;99755.42;;;13.65;100.00
46127;BME280;31859;55.030;-1.550;2022-10-04T10:21:58;99757.92;;;13.37;100.00
46127;BME280;31859;55.030;-1.550;2022-10-04T10:24:45;99759.08;;;13.62;100.00
46127;BME280;31859;55.030;-1.550;2022-10-04T10:27:33;99763.39;;;13.16;100.00
46127;BME280;31859;55.030;-1.550;2022-10-04T10:30:17;99754.71;;;13.15;100.00
46127;BME280;31859;55.030;-1.550;2022-10-04T10:35:16;99757.76;;;13.77;100.00
46127;BME280;31859;55.030;-1.550;2022-10-04T10:37:56;99742.17;;;13.28;100.00
46127;BME280;31859;55.030;-1.550;2022-10-04T10:40:39;99749.14;;;13.04;100.00
46127;BME280;31859;55.030;-1.550;2022-10-04T10:43:23;99742.41;;;13.35;100.00
46127;BME280;31859;55.030;-1.550;2022-10-04T10:46:02;99732.38;;;13.90;100.00
46127;BME280;31859;55.030;-1.550;2022-10-04T10:48:46;99731.41;;;13.37;100.00
46127;BME280;31859;55.030;-1.550;2022-10-04T10:51:39;99735.31;;;13.55;100.00
46127;BME280;31859;55.030;-1.550;2022-10-04T10:54:37;99739.13;;;13.38;100.00
46127;BME280;31859;55.030;-1.550;2022-10-04T10:57:17;99725.05;;;13.69;100.00
46127;BME280;31859;55.030;-1.550;2022-10-04T11:00:09;99730.29;;;13.68;100.00
46127;BME280;31859;55.030;-1.550;2022-10-04T11:03:13;99738.77;;;13.24;100.00
46127;BME280;31859;55.030;-1.550;2022-10-04T11:06:06;99744.43;;;13.71;100.00
46127;BME280;31859;55.030;-1.550;2022-10-04T11:10:59;99752.08;;;14.12;100.00
46127;BME280;31859;55.030;-1.550;2022-10-04T11:14:22;99749.75;;;13.21;100.00
46127;BME280;31859;55.030;-1.550;2022-10-04T11:17:15;99742.63;;;13.32;100.00
46127;BME280;31859;55.030;-1.550;2022-10-04T11:22:25;99721.75;;;13.69;100.00
46127;BME280;31859;55.030;-1.550;2022-10-04T11:25:20;99717.99;;;13.51;100.00
46127;BME280;31859;55.030;-1.550;2022-10-04T11:27:57;99714.93;;;13.31;100.00
46127;BME280;31859;55.030;-1.550;2022-10-04T11:30:38;99719.72;;;13.57;100.00
46127;BME280;31859;55.030;-1.550;2022-10-04T11:34:01;99724.25;;;13.34;100.00
46127;BME280;31859;55.030;-1.550;2022-10-04T11:36:43;99707.64;;;13.82;100.00
46127;BME280;31859;55.030;-1.550;2022-10-04T11:39:34;99688.74;;;13.78;100.00
46127;BME280;31859;55.030;-1.550;2022-10-04T11:42:17;99698.34;;;14.15;100.00
46127;BME280;31859;55.030;-1.550;2022-10-04T11:45:12;99683.79;;;13.66;100.00
46127;BME280;31859;55.030;-1.550;2022-10-04T11:47:56;99692.28;;;13.84;100.00
46127;BME280;31859;55.030;-1.550;2022-10-04T11:50:35;99704.79;;;13.88;100.00
46127;BME280;31859;55.030;-1.550;2022-10-04T11:53:51;99674.57;;;14.20;100.00
46127;BME280;31859;55.030;-1.550;2022-10-04T11:56:31;99665.24;;;13.99;100.00
46127;BME280;31859;55.030;-1.550;2022-10-04T11:59:12;99666.27;;;14.26;100.00
46127;BME280;31859;55.030;-1.550;2022-10-04T12:03:13;99687.41;;;14.51;100.00
46127;BME280;31859;55.030;-1.550;2022-10-04T12:05:57;99676.68;;;13.95;100.00
46127;BME280;31859;55.030;-1.550;2022-10-04T12:08:37;99679.68;;;13.89;100.00
46127;BME280;31859;55.030;-1.550;2022-10-04T12:11:23;99680.59;;;14.21;100.00
46127;BME280;31859;55.030;-1.550;2022-10-04T12:14:08;99678.60;;;14.17;100.00
46127;BME280;31859;55.030;-1.550;2022-10-04T12:18:04;99684.86;;;14.14;100.00
46127;BME280;31859;55.030;-1.550;2022-10-04T12:20:42;99725.05;;;13.65;100.00
46127;BME280;31859;55.030;-1.550;2022-10-04T12:23:31;99722.46;;;14.12;100.00
46127;BME280;31859;55.030;-1.550;2022-10-04T12:26:18;99713.47;;;13.84;100.00
46127;BME280;31859;55.030;-1.550;2022-10-04T12:29:08;99714.97;;;14.10;100.00
46127;BME280;31859;55.030;-1.550;2022-10-04T12:31:43;99737.37;;;14.30;100.00
46127;BME280;31859;55.030;-1.550;2022-10-04T12:34:17;99727.32;;;14.28;100.00
46127;BME280;31859;55.030;-1.550;2022-10-04T12:36:59;99711.64;;;14.40;100.00
46127;BME280;31859;55.030;-1.550;2022-10-04T12:39:37;99708.51;;;14.29;100.00
46127;BME280;31859;55.030;-1.550;2022-10-04T12:42:20;99712.82;;;14.70;100.00
46127;BME280;31859;55.030;-1.550;2022-10-04T12:45:01;99710.43;;;14.70;100.00
46127;BME280;31859;55.030;-1.550;2022-10-04T12:47:45;99707.81;;;14.47;100.00
46127;BME280;31859;55.030;-1.550;2022-10-04T12:50:27;99710.81;;;14.60;100.00
46127;BME280;31859;55.030;-1.550;2022-10-04T12:53:05;99699.46;;;14.74;100.00
46127;BME280;31859;55.030;-1.550;2022-10-04T12:55:50;99704.87;;;14.74;100.00
46127;BME280;31859;55.030;-1.550;2022-10-04T12:58:24;99704.08;;;14.50;100.00
46127;BME280;31859;55.030;-1.550;2022-10-04T13:00:58;99705.14;;;14.65;100.00
46127;BME280;31859;55.030;-1.550;2022-10-04T13:03:39;99711.08;;;14.67;100.00
46127;BME280;31859;55.030;-1.550;2022-10-04T13:06:16;99706.42;;;14.86;100.00
46127;BME280;31859;55.030;-1.550;2022-10-04T13:08:59;99703.25;;;15.11;100.00
46127;BME280;31859;55.030;-1.550;2022-10-04T13:11:49;99697.77;;;15.01;100.00
46127;BME280;31859;55.030;-1.550;2022-10-04T13:15:26;99674.51;;;15.00;100.00
46127;BME280;31859;55.030;-1.550;2022-10-04T13:18:03;99672.45;;;15.26;100.00
46127;BME280;31859;55.030;-1.550;2022-10-04T13:20:44;99678.73;;;14.91;100.00
46127;BME280;31859;55.030;-1.550;2022-10-04T13:23:30;99676.45;;;14.87;100.00
46127;BME280;31859;55.030;-1.550;2022-10-04T13:26:20;99668.43;;;15.00;100.00
46127;BME280;31859;55.030;-1.550;2022-10-04T13:28:55;99668.08;;;16.37;100.00
46127;BME280;31859;55.030;-1.550;2022-10-04T13:31:28;99661.25;;;15.76;100.00
46127;BME280;31859;55.030;-1.550;2022-10-04T13:34:06;99659.58;;;15.66;100.00
46127;BME280;31859;55.030;-1.550;2022-10-04T13:36:49;99644.49;;;15.57;100.00
46127;BME280;31859;55.030;-1.550;2022-10-04T13:39:29;99675.01;;;15.22;100.00
46127;BME280;31859;55.030;-1.550;2022-10-04T13:42:12;99650.55;;;15.35;100.00
46127;BME280;31859;55.030;-1.550;2022-10-04T13:44:53;99649.81;;;14.74;100.00
46127;BME280;31859;55.030;-1.550;2022-10-04T13:47:40;99638.98;;;15.03;100.00
46127;BME280;31859;55.030;-1.550;2022-10-04T13:50:28;99634.70;;;14.37;100.00
46127;BME280;31859;55.030;-1.550;2022-10-04T13:53:08;99621.31;;;14.56;100.00